El Dorado Springs, MO (64744)

8:30 PM CDT on August 23, 2016 (GMT -0500)
Crosby's Casita | | Change Station

Elev 995 ft 37.72 °N, 93.94 °W | Updated 7 minutes ago

Clear
Clear
78.3 °F
Feels Like 81 °F
N
4.7
Wind Variable Wind from South

Today
High -- | Low -- °F
--% Chance of Precip.
Yesterday
High -- | Low -- °F
Precip. -- in
Pressure 30.00 in
Visibility 10.0 miles
Clouds Clear
Heat Index 81 °F
Dew Point 72 °F
Humidity 80%
Rainfall 0.07 in
Snow Depth Not available.
6:38 AM 7:57 PM
Waning Gibbous, 62% visible
METAR KGLY 240115Z AUTO 16008KT 10SM CLR 26/23 A3000 RMK AO2
Pressure 30.00 in
Visibility 10.0 miles
Clouds Clear
Heat Index 81 °F
Dew Point 72 °F
Humidity 80%
Rainfall 0.07 in
Snow Depth Not available.
6:38 AM 7:57 PM
Waning Gibbous, 62% visible
METAR KGLY 240115Z AUTO 16008KT 10SM CLR 26/23 A3000 RMK AO2

10-Day Weather Forecast

Almanac

Astronomy

Aug. 23, 2016 Rise Set
Actual Time
Civil Twilight
Nautical Twilight
Astronomical Twilight
Moon
Length of Visible Light
Length of Day
Tomorrow will be .
, % of the Moon is Illuminated

Today's Extremes

State Highs State Lows

Community

WunderPhotos

Upload Photos

1,934,517 photos uploaded!

WunderBlog® & News

Nearby

Air Quality

  Air Quality AQ Index Pollutant
Not available.

Snow Depth

Station Depth Elevation

Earthquake Activity

City Distance Mag. Time & Date
Minimum magnitude displayed is 2.5.

Coastal Water Temperatures

Place Temperature

Stations

Nearby Weather Stations

Station Location Temp. Windchill Dew Point Humidity Wind Precip. Elev Updated Type
                   

Watches & Warnings

There are currently no watches in effect.